Time;durP1;ratioP1;P1;durP2;ratioP2;P2;SDS_P1;SDS_P2;PMS_P1;PMS_P2;Temp;Humidity;BMP_temperature;BMP_pressure;BME280_temperature;BME280_humidity;BME280_pressure;Samples;Min_cycle;Max_cycle;Signal;HPM_P1;HPM_P2
2022/06/29 00:01:26;;;;;;;5.47;3.42;;;;;;;;;;6195074;23;20456;-81
2022/06/29 00:03:56;;;;;;;4.38;3.22;;;;;;;;;;6246573;23;20016;-83
2022/06/29 00:06:25;;;;;;;7.40;3.95;;;;;;;;;;6193571;23;20063;-84
2022/06/29 00:08:51;;;;;;;7.38;4.38;;;;;;;;;;6246207;23;20107;-84
2022/06/29 00:11:17;;;;;;;8.02;4.25;;;;;;;;;;6245390;23;20020;-82
2022/06/29 00:13:43;;;;;;;5.45;3.40;;;;;;;;;;6170044;23;20024;-84
2022/06/29 00:16:09;;;;;;;7.43;3.85;;;;;;;;;;6193417;23;20046;-83
2022/06/29 00:18:35;;;;;;;9.93;4.47;;;;;;;;;;6219719;23;20027;-83
2022/06/29 00:21:19;;;;;;;7.10;4.15;;;;;;;;;;6243462;23;20024;-83
2022/06/29 00:24:06;;;;;;;9.43;4.00;;;;;;;;;;6194519;23;20562;-83
2022/06/29 00:26:32;;;;;;;6.93;4.25;;;;;;;;;;6181700;23;20081;-83
2022/06/29 00:28:58;;;;;;;11.82;4.65;;;;;;;;;;6245807;23;20016;-82
2022/06/29 00:31:24;;;;;;;10.68;5.25;;;;;;;;;;6192959;23;20067;-84
2022/06/29 00:33:50;;;;;;;5.70;4.45;;;;;;;;;;6220851;23;20023;-84
2022/06/29 00:36:37;;;;;;;6.80;4.82;;;;;;;;;;6219704;23;20020;-83
2022/06/29 00:39:03;;;;;;;10.48;4.75;;;;;;;;;;6216169;23;20020;-82
2022/06/29 00:41:29;;;;;;;5.78;4.30;;;;;;;;;;6189227;23;20424;-83
2022/06/29 00:44:15;;;;;;;6.07;4.75;;;;;;;;;;6194803;23;20024;-82
2022/06/29 00:46:43;;;;;;;9.05;4.55;;;;;;;;;;6225685;23;20012;-84
2022/06/29 00:49:10;;;;;;;6.28;4.13;;;;;;;;;;6225348;23;20020;-84
2022/06/29 00:52:16;;;;;;;8.77;4.63;;;;;;;;;;6229344;23;20013;-82
2022/06/29 00:55:10;;;;;;;8.10;4.40;;;;;;;;;;6195918;23;20021;-82
2022/06/29 00:57:38;;;;;;;9.20;4.80;;;;;;;;;;6216758;23;20032;-84
2022/06/29 01:03:27;;;;;;;6.13;4.32;;;;;;;;;;6215095;23;20449;-84
2022/06/29 01:05:53;;;;;;;5.97;4.75;;;;;;;;;;6192374;23;20091;-83
2022/06/29 01:08:19;;;;;;;10.60;5.03;;;;;;;;;;6191899;23;20385;-84
2022/06/29 01:10:45;;;;;;;7.95;4.60;;;;;;;;;;6192004;23;20131;-84
2022/06/29 01:13:40;;;;;;;7.13;4.53;;;;;;;;;;6216869;23;20027;-82
2022/06/29 01:16:09;;;;;;;10.32;4.63;;;;;;;;;;6191177;23;20021;-83
2022/06/29 01:18:36;;;;;;;7.43;4.40;;;;;;;;;;6189449;23;20017;-83
2022/06/29 01:21:06;;;;;;;7.68;4.75;;;;;;;;;;6162907;23;20021;-82
2022/06/29 01:23:32;;;;;;;4.95;4.45;;;;;;;;;;6165106;23;20029;-82
2022/06/29 01:26:03;;;;;;;9.40;4.72;;;;;;;;;;6188330;23;20017;-83
2022/06/29 01:28:30;;;;;;;10.13;5.10;;;;;;;;;;6215820;23;20020;-84
2022/06/29 01:30:56;;;;;;;7.15;4.57;;;;;;;;;;6162838;23;20013;-84
2022/06/29 01:33:22;;;;;;;6.13;4.57;;;;;;;;;;6188426;23;20112;-84
2022/06/29 01:35:48;;;;;;;7.32;5.25;;;;;;;;;;6189682;23;20021;-84
2022/06/29 01:38:14;;;;;;;6.38;4.70;;;;;;;;;;6182151;23;20015;-84
2022/06/29 01:40:42;;;;;;;7.20;4.80;;;;;;;;;;6192796;23;20139;-83
2022/06/29 01:43:11;;;;;;;6.72;4.97;;;;;;;;;;6219734;23;20048;-83
2022/06/29 01:45:40;;;;;;;6.28;5.00;;;;;;;;;;6246219;23;20039;-83
2022/06/29 01:48:06;;;;;;;8.48;5.25;;;;;;;;;;6218124;23;20474;-83
2022/06/29 01:51:05;;;;;;;9.13;5.60;;;;;;;;;;6219551;23;20022;-85
2022/06/29 01:54:00;;;;;;;5.55;5.05;;;;;;;;;;6202700;23;20024;-84
2022/06/29 01:56:26;;;;;;;11.57;5.60;;;;;;;;;;6246185;22;20038;-83
2022/06/29 01:58:52;;;;;;;7.00;5.50;;;;;;;;;;6302224;22;20393;-83
2022/06/29 02:01:32;;;;;;;9.13;5.30;;;;;;;;;;6275517;22;20020;-82
2022/06/29 02:03:58;;;;;;;8.15;6.28;;;;;;;;;;6276151;22;20027;-83
2022/06/29 02:06:25;;;;;;;7.03;6.32;;;;;;;;;;6222801;22;20039;-83
2022/06/29 02:08:52;;;;;;;8.70;6.43;;;;;;;;;;6278513;22;20018;-85
2022/06/29 02:11:19;;;;;;;8.70;6.63;;;;;;;;;;6277599;22;20023;-85
2022/06/29 02:13:46;;;;;;;12.38;7.05;;;;;;;;;;6253083;22;20019;-85
2022/06/29 02:16:12;;;;;;;11.05;6.93;;;;;;;;;;6281519;22;20026;-84
2022/06/29 02:18:38;;;;;;;9.65;6.43;;;;;;;;;;6282762;22;20495;-85
2022/06/29 02:21:04;;;;;;;7.57;6.72;;;;;;;;;;6230548;22;20035;-85
2022/06/29 02:23:31;;;;;;;9.45;7.57;;;;;;;;;;6254158;22;20066;-83
2022/06/29 02:26:16;;;;;;;8.68;6.95;;;;;;;;;;6229928;22;20016;-83
2022/06/29 02:28:42;;;;;;;10.82;6.63;;;;;;;;;;6281384;22;20034;-85
2022/06/29 02:37:16;;;;;;;14.75;7.47;;;;;;;;;;6201480;22;20419;-84
2022/06/29 02:39:43;;;;;;;7.80;7.10;;;;;;;;;;6254125;22;20072;-84
2022/06/29 02:42:10;;;;;;;8.48;7.55;;;;;;;;;;6252257;22;20122;-84
2022/06/29 02:44:46;;;;;;;8.05;7.32;;;;;;;;;;6253771;22;20051;-84
2022/06/29 02:47:13;;;;;;;13.30;8.27;;;;;;;;;;6278408;22;20015;-84
2022/06/29 02:49:39;;;;;;;15.32;8.10;;;;;;;;;;6279918;22;20094;-84
2022/06/29 02:52:05;;;;;;;8.70;7.88;;;;;;;;;;6303326;22;20463;-84
2022/06/29 02:54:31;;;;;;;11.48;8.15;;;;;;;;;;6305078;22;20031;-84
2022/06/29 02:56:58;;;;;;;9.13;7.25;;;;;;;;;;6250919;22;20095;-84
2022/06/29 02:59:24;;;;;;;8.77;7.18;;;;;;;;;;6276406;22;20031;-85
2022/06/29 03:01:50;;;;;;;8.98;7.60;;;;;;;;;;6252813;22;20024;-83
2022/06/29 03:04:16;;;;;;;9.07;7.80;;;;;;;;;;6251672;22;20073;-84
2022/06/29 03:06:42;;;;;;;8.07;7.22;;;;;;;;;;6252829;22;20105;-84
2022/06/29 03:09:08;;;;;;;9.25;7.60;;;;;;;;;;6276341;22;20015;-84
2022/06/29 03:11:35;;;;;;;9.38;7.95;;;;;;;;;;6252883;22;20126;-85
2022/06/29 03:14:01;;;;;;;13.32;8.77;;;;;;;;;;6279766;22;20015;-85
2022/06/29 03:16:27;;;;;;;8.02;7.22;;;;;;;;;;6280331;22;20116;-84
2022/06/29 03:19:06;;;;;;;8.88;7.00;;;;;;;;;;6300356;22;20035;-84
2022/06/29 03:21:32;;;;;;;9.00;7.13;;;;;;;;;;6253267;22;20023;-84
2022/06/29 03:24:17;;;;;;;10.77;7.80;;;;;;;;;;6227182;22;20403;-85
2022/06/29 03:26:43;;;;;;;10.13;7.55;;;;;;;;;;6302445;22;20122;-84
2022/06/29 03:29:09;;;;;;;10.18;7.40;;;;;;;;;;6277233;22;20022;-85
2022/06/29 03:31:35;;;;;;;10.75;7.07;;;;;;;;;;6251889;22;20045;-85
2022/06/29 03:34:01;;;;;;;10.18;6.88;;;;;;;;;;6279495;22;20446;-84
2022/06/29 03:36:30;;;;;;;12.07;7.50;;;;;;;;;;6277054;22;20351;-84
2022/06/29 03:38:56;;;;;;;7.38;6.72;;;;;;;;;;6279710;22;20097;-84
2022/06/29 03:41:22;;;;;;;8.93;6.63;;;;;;;;;;6249792;22;20523;-83
2022/06/29 03:43:48;;;;;;;7.88;6.90;;;;;;;;;;6277474;22;20594;-84
2022/06/29 03:46:14;;;;;;;10.10;7.43;;;;;;;;;;6301571;22;20059;-83
2022/06/29 03:48:43;;;;;;;7.72;7.03;;;;;;;;;;6251090;22;20019;-84
2022/06/29 03:51:34;;;;;;;9.73;7.45;;;;;;;;;;6275775;22;20031;-85
2022/06/29 03:54:00;;;;;;;8.90;8.00;;;;;;;;;;6276444;22;20038;-84
2022/06/29 03:56:29;;;;;;;8.98;8.23;;;;;;;;;;6279460;22;20023;-85
2022/06/29 03:59:01;;;;;;;9.00;8.15;;;;;;;;;;6252171;22;20020;-85
2022/06/29 04:01:27;;;;;;;8.38;7.50;;;;;;;;;;6229262;22;20024;-85
2022/06/29 04:04:45;;;;;;;9.60;7.75;;;;;;;;;;6279797;22;20016;-83
2022/06/29 04:07:20;;;;;;;11.30;7.30;;;;;;;;;;6257395;22;20023;-84
2022/06/29 04:09:46;;;;;;;11.55;8.48;;;;;;;;;;6311891;22;20092;-84
2022/06/29 04:12:13;;;;;;;8.82;7.88;;;;;;;;;;6282395;22;20016;-84
2022/06/29 04:14:39;;;;;;;8.48;7.35;;;;;;;;;;6276200;22;20072;-84
2022/06/29 04:17:24;;;;;;;9.85;7.43;;;;;;;;;;6278796;22;20030;-83
2022/06/29 04:19:53;;;;;;;8.45;7.03;;;;;;;;;;6251003;22;20075;-83
2022/06/29 04:25:39;;;;;;;10.52;7.78;;;;;;;;;;6274230;22;20438;-83
2022/06/29 04:28:06;;;;;;;10.93;7.88;;;;;;;;;;6250078;22;20244;-83
2022/06/29 04:30:41;;;;;;;10.95;7.80;;;;;;;;;;6251800;22;20012;-84
2022/06/29 04:33:13;;;;;;;8.90;7.70;;;;;;;;;;6300138;22;20084;-83
2022/06/29 04:35:39;;;;;;;13.02;6.88;;;;;;;;;;6275632;22;20016;-84
2022/06/29 04:38:05;;;;;;;8.23;6.90;;;;;;;;;;6249957;22;20016;-82
2022/06/29 04:40:31;;;;;;;7.75;6.50;;;;;;;;;;6276708;22;20030;-83
2022/06/29 04:42:57;;;;;;;10.27;6.45;;;;;;;;;;6251747;22;20046;-84
2022/06/29 04:48:08;;;;;;;8.32;6.45;;;;;;;;;;6279765;22;20024;-84
2022/06/29 04:50:34;;;;;;;8.90;7.72;;;;;;;;;;6301403;22;20024;-84
2022/06/29 04:53:00;;;;;;;9.90;7.30;;;;;;;;;;6250771;22;20016;-84
2022/06/29 04:55:29;;;;;;;8.65;7.43;;;;;;;;;;6300947;22;20395;-83
2022/06/29 04:57:55;;;;;;;8.52;7.18;;;;;;;;;;6275243;22;20020;-83
2022/06/29 05:00:43;;;;;;;8.93;7.13;;;;;;;;;;6277704;22;20020;-85
2022/06/29 05:03:09;;;;;;;7.30;6.50;;;;;;;;;;6299882;22;20046;-83
2022/06/29 05:06:13;;;;;;;;;;;;;;;;;;;;;
2022/06/29 05:08:49;;;;;;;8.70;7.68;;;;;;;;;;6247030;22;20043;-85
2022/06/29 05:11:17;;;;;;;8.85;7.15;;;;;;;;;;6303256;22;20751;-84
2022/06/29 05:13:48;;;;;;;11.05;7.22;;;;;;;;;;6250489;22;20011;-85
2022/06/29 05:16:14;;;;;;;9.27;7.13;;;;;;;;;;6303503;22;20020;-85
2022/06/29 05:18:41;;;;;;;10.25;6.82;;;;;;;;;;6279854;22;20022;-84
2022/06/29 05:21:26;;;;;;;9.30;7.15;;;;;;;;;;6302514;22;20019;-83
2022/06/29 05:23:52;;;;;;;8.40;7.60;;;;;;;;;;6278642;22;20029;-86
2022/06/29 05:26:24;;;;;;;7.88;7.05;;;;;;;;;;6304355;22;20042;-87
2022/06/29 05:28:51;;;;;;;9.48;7.00;;;;;;;;;;6278912;22;20024;-85
2022/06/29 05:31:20;;;;;;;9.30;7.10;;;;;;;;;;6279643;22;20022;-84
2022/06/29 05:33:52;;;;;;;11.05;7.43;;;;;;;;;;6251646;22;20031;-84
2022/06/29 05:36:18;;;;;;;7.00;6.30;;;;;;;;;;6224697;22;20076;-83
2022/06/29 05:38:44;;;;;;;8.45;6.78;;;;;;;;;;6252968;22;20019;-83
2022/06/29 05:41:11;;;;;;;7.40;6.70;;;;;;;;;;6302835;22;20024;-84
2022/06/29 05:43:37;;;;;;;14.35;7.38;;;;;;;;;;6281082;22;20568;-83
2022/06/29 05:46:06;;;;;;;11.13;7.85;;;;;;;;;;6275079;22;20030;-84
2022/06/29 05:48:32;;;;;;;10.40;7.10;;;;;;;;;;6279994;22;20027;-82
2022/06/29 05:50:58;;;;;;;8.40;6.82;;;;;;;;;;6303838;22;20447;-82
2022/06/29 05:53:34;;;;;;;8.68;6.65;;;;;;;;;;6279773;22;20103;-85
2022/06/29 05:56:00;;;;;;;9.10;7.30;;;;;;;;;;6279752;22;20027;-81
2022/06/29 05:58:26;;;;;;;9.00;6.85;;;;;;;;;;6278584;22;20046;-83
2022/06/29 06:00:53;;;;;;;10.00;7.20;;;;;;;;;;6256177;22;20077;-82
2022/06/29 06:03:34;;;;;;;8.82;6.15;;;;;;;;;;6258047;22;20020;-83
2022/06/29 06:06:03;;;;;;;8.68;6.85;;;;;;;;;;6311404;22;20039;-84
2022/06/29 06:08:31;;;;;;;9.18;6.82;;;;;;;;;;6285022;22;20034;-82
2022/06/29 06:11:01;;;;;;;8.52;6.70;;;;;;;;;;6285310;22;20016;-84
2022/06/29 06:13:34;;;;;;;6.63;6.03;;;;;;;;;;6257757;22;20259;-85
2022/06/29 06:16:30;;;;;;;7.10;6.05;;;;;;;;;;6238475;22;20020;-85
2022/06/29 06:18:59;;;;;;;7.63;6.22;;;;;;;;;;6262664;22;20042;-83
2022/06/29 06:21:25;;;;;;;6.45;5.80;;;;;;;;;;6255706;22;20089;-84
2022/06/29 06:23:52;;;;;;;8.05;6.05;;;;;;;;;;6282795;22;20023;-82
2022/06/29 06:26:18;;;;;;;8.93;6.20;;;;;;;;;;6257464;22;20020;-83
2022/06/29 06:28:46;;;;;;;9.20;5.90;;;;;;;;;;6256376;22;20047;-83
2022/06/29 06:31:12;;;;;;;6.10;5.60;;;;;;;;;;6281992;22;20042;-83
2022/06/29 06:33:45;;;;;;;6.68;5.95;;;;;;;;;;6255719;22;20071;-82
2022/06/29 06:36:11;;;;;;;10.38;6.03;;;;;;;;;;6281508;22;20095;-84
2022/06/29 06:38:43;;;;;;;8.35;5.97;;;;;;;;;;6276134;22;20026;-84
2022/06/29 06:41:21;;;;;;;6.00;5.45;;;;;;;;;;6248665;22;20043;-83
2022/06/29 06:43:51;;;;;;;6.85;5.90;;;;;;;;;;6302026;22;20041;-84
2022/06/29 06:46:18;;;;;;;6.90;5.70;;;;;;;;;;6277569;22;20019;-83
2022/06/29 06:49:03;;;;;;;6.57;5.97;;;;;;;;;;6280027;22;20024;-86
2022/06/29 06:51:43;;;;;;;8.15;6.18;;;;;;;;;;6248558;22;20016;-84
2022/06/29 06:54:09;;;;;;;8.15;5.72;;;;;;;;;;6278981;22;20016;-84
2022/06/29 06:56:36;;;;;;;7.15;6.03;;;;;;;;;;6253009;22;20023;-85
2022/06/29 06:59:02;;;;;;;6.38;5.78;;;;;;;;;;6277313;22;20020;-85
2022/06/29 07:01:40;;;;;;;9.38;5.85;;;;;;;;;;6279310;22;20020;-84
2022/06/29 07:04:06;;;;;;;7.22;5.68;;;;;;;;;;6277189;22;20020;-84
2022/06/29 07:06:32;;;;;;;7.15;6.22;;;;;;;;;;6278297;22;20027;-84
2022/06/29 07:08:59;;;;;;;7.15;6.10;;;;;;;;;;6251257;22;20016;-84
2022/06/29 07:11:25;;;;;;;8.32;5.85;;;;;;;;;;6277650;22;20057;-84
2022/06/29 07:14:00;;;;;;;6.68;5.85;;;;;;;;;;6277173;22;20037;-83
2022/06/29 07:16:26;;;;;;;5.97;5.43;;;;;;;;;;6305381;22;20024;-84
2022/06/29 07:18:53;;;;;;;6.55;5.82;;;;;;;;;;6279874;22;20030;-84
2022/06/29 07:21:19;;;;;;;8.13;5.93;;;;;;;;;;6252158;22;20024;-83
2022/06/29 07:23:45;;;;;;;5.93;5.05;;;;;;;;;;6279133;22;20023;-83
2022/06/29 07:26:11;;;;;;;12.07;6.22;;;;;;;;;;6277659;22;20024;-86
2022/06/29 07:28:39;;;;;;;6.28;5.68;;;;;;;;;;6279632;22;20076;-87
2022/06/29 07:31:06;;;;;;;9.07;5.80;;;;;;;;;;6227603;22;20020;-86
2022/06/29 07:33:32;;;;;;;8.23;5.57;;;;;;;;;;6278665;22;20024;-86
2022/06/29 07:35:58;;;;;;;10.20;5.82;;;;;;;;;;6252857;22;20026;-86
2022/06/29 07:38:24;;;;;;;5.22;4.82;;;;;;;;;;6284599;22;20026;-84
2022/06/29 07:40:51;;;;;;;9.95;4.70;;;;;;;;;;6282735;22;20019;-85
2022/06/29 07:43:35;;;;;;;7.28;5.38;;;;;;;;;;6304319;22;20020;-85
2022/06/29 07:46:02;;;;;;;6.30;5.32;;;;;;;;;;6275846;22;20019;-86
2022/06/29 07:48:28;;;;;;;8.43;4.72;;;;;;;;;;6248868;22;20015;-85
2022/06/29 07:50:54;;;;;;;5.80;5.30;;;;;;;;;;6277828;22;20030;-84
2022/06/29 07:53:20;;;;;;;9.43;4.78;;;;;;;;;;6273120;22;20019;-85
2022/06/29 07:55:46;;;;;;;5.30;4.80;;;;;;;;;;6274413;22;20024;-86
2022/06/29 07:58:13;;;;;;;5.20;4.70;;;;;;;;;;6274343;22;20497;-84
2022/06/29 08:00:45;;;;;;;8.00;5.10;;;;;;;;;;6247091;22;20046;-84
2022/06/29 08:03:12;;;;;;;5.63;4.47;;;;;;;;;;6274154;22;20026;-85
2022/06/29 08:05:38;;;;;;;5.82;3.80;;;;;;;;;;6274506;22;20023;-84
2022/06/29 08:08:05;;;;;;;5.00;3.78;;;;;;;;;;6247612;22;20086;-84
2022/06/29 08:10:32;;;;;;;6.45;4.30;;;;;;;;;;6273417;22;20139;-84
2022/06/29 08:12:59;;;;;;;5.90;3.90;;;;;;;;;;6275927;22;20103;-85
2022/06/29 08:15:25;;;;;;;8.25;3.90;;;;;;;;;;6273409;22;20078;-84
2022/06/29 08:17:52;;;;;;;9.38;4.20;;;;;;;;;;6249682;22;20022;-85
2022/06/29 08:20:18;;;;;;;6.88;4.03;;;;;;;;;;6272593;22;20046;-85
2022/06/29 08:22:46;;;;;;;8.07;4.20;;;;;;;;;;6276379;22;20015;-84
2022/06/29 08:25:25;;;;;;;9.00;4.65;;;;;;;;;;6196232;23;20086;-84
2022/06/29 08:27:52;;;;;;;5.85;4.10;;;;;;;;;;6190682;23;20020;-83
2022/06/29 08:30:18;;;;;;;7.00;4.40;;;;;;;;;;6244757;23;20487;-85
2022/06/29 08:32:54;;;;;;;6.40;4.32;;;;;;;;;;6243895;23;20020;-84
2022/06/29 08:35:20;;;;;;;9.45;5.07;;;;;;;;;;6191535;23;20016;-85
2022/06/29 08:37:47;;;;;;;8.02;5.55;;;;;;;;;;6219877;23;20016;-85
2022/06/29 08:43:24;;;;;;;15.23;4.80;;;;;;;;;;6249262;22;20031;-84
2022/06/29 08:45:52;;;;;;;8.55;5.00;;;;;;;;;;6226237;22;20031;-85
2022/06/29 08:48:18;;;;;;;10.43;5.15;;;;;;;;;;6226730;22;20024;-84
2022/06/29 08:50:47;;;;;;;5.93;4.85;;;;;;;;;;6251749;22;20077;-83
2022/06/29 08:53:15;;;;;;;12.77;5.05;;;;;;;;;;6226801;22;20047;-83
2022/06/29 08:55:51;;;;;;;6.95;5.32;;;;;;;;;;6226189;22;20019;-84
2022/06/29 08:58:21;;;;;;;7.55;4.63;;;;;;;;;;6278469;22;20019;-85
2022/06/29 09:00:49;;;;;;;8.45;4.93;;;;;;;;;;6225260;22;20043;-81
2022/06/29 09:03:17;;;;;;;8.52;4.22;;;;;;;;;;6247752;22;20093;-84
2022/06/29 09:05:50;;;;;;;6.43;4.60;;;;;;;;;;6244588;22;20664;-85
2022/06/29 09:11:46;;;;;;;7.70;4.28;;;;;;;;;;6277562;22;20513;-86
2022/06/29 09:14:33;;;;;;;5.57;3.90;;;;;;;;;;6248455;22;20020;-84
2022/06/29 09:17:00;;;;;;;9.55;3.58;;;;;;;;;;6248895;22;20028;-85
2022/06/29 09:19:36;;;;;;;5.05;4.03;;;;;;;;;;6275781;22;20065;-85
2022/06/29 09:22:03;;;;;;;4.60;4.13;;;;;;;;;;6246489;22;20027;-84
2022/06/29 09:24:31;;;;;;;4.38;3.78;;;;;;;;;;6248997;22;20054;-86
2022/06/29 09:27:14;;;;;;;6.47;4.50;;;;;;;;;;6249708;22;20028;-84
2022/06/29 09:29:41;;;;;;;7.00;3.78;;;;;;;;;;6250655;22;20027;-84
2022/06/29 09:32:34;;;;;;;9.10;4.00;;;;;;;;;;6223264;22;20035;-83
2022/06/29 09:35:01;;;;;;;4.47;3.40;;;;;;;;;;6072484;23;20545;-85
2022/06/29 09:37:27;;;;;;;5.03;3.60;;;;;;;;;;6221706;22;20024;-84
2022/06/29 09:39:54;;;;;;;9.43;4.03;;;;;;;;;;6223211;22;20016;-85
2022/06/29 09:42:24;;;;;;;4.68;3.65;;;;;;;;;;6250784;22;20051;-85
2022/06/29 09:44:50;;;;;;;6.82;3.30;;;;;;;;;;6249710;22;20015;-84
2022/06/29 09:47:19;;;;;;;5.90;3.13;;;;;;;;;;6228249;22;20074;-85
2022/06/29 09:50:14;;;;;;;5.25;3.25;;;;;;;;;;6250800;22;20091;-85
2022/06/29 09:53:07;;;;;;;8.57;3.42;;;;;;;;;;6246360;22;20090;-85
2022/06/29 09:58:57;;;;;;;4.63;3.15;;;;;;;;;;6278827;22;20015;-85
2022/06/29 10:04:10;;;;;;;9.20;3.50;;;;;;;;;;6278074;22;20229;-83
2022/06/29 11:28:15;;;;;;;9.00;2.30;;;;;;;;;;6264005;22;20050;-85
2022/06/29 11:33:55;;;;;;;1.92;1.75;;;;;;;;;;6260859;22;20027;-85
2022/06/29 11:36:22;;;;;;;3.70;1.90;;;;;;;;;;6278240;22;20723;-86
2022/06/29 11:38:56;;;;;;;5.53;1.90;;;;;;;;;;6252682;22;20034;-85
2022/06/29 11:41:27;;;;;;;2.40;1.63;;;;;;;;;;6280615;22;20528;-84
2022/06/29 11:44:00;;;;;;;3.78;1.90;;;;;;;;;;6251106;22;20019;-85
2022/06/29 11:49:48;;;;;;;3.25;2.13;;;;;;;;;;6295125;22;20023;-84
2022/06/29 11:52:16;;;;;;;2.58;1.90;;;;;;;;;;6257470;22;20024;-84
2022/06/29 12:04:11;;;;;;;5.85;2.20;;;;;;;;;;6234287;22;20034;-85
2022/06/29 12:06:38;;;;;;;3.42;2.20;;;;;;;;;;6223921;22;20059;-85
2022/06/29 12:11:45;;;;;;;4.13;1.98;;;;;;;;;;6249930;22;20051;-86
2022/06/29 12:14:11;;;;;;;3.20;2.17;;;;;;;;;;6226642;22;20038;-86
2022/06/29 12:17:02;;;;;;;5.45;1.90;;;;;;;;;;6228587;22;20071;-85
2022/06/29 12:19:28;;;;;;;4.30;1.92;;;;;;;;;;6226899;22;20088;-86
2022/06/29 12:21:57;;;;;;;2.30;1.98;;;;;;;;;;6255303;22;20015;-86
2022/06/29 12:27:08;;;;;;;2.88;2.55;;;;;;;;;;6280036;22;20032;-85
2022/06/29 12:29:34;;;;;;;2.28;1.77;;;;;;;;;;6250969;22;20016;-84
2022/06/29 12:34:42;;;;;;;2.33;1.65;;;;;;;;;;6250673;22;20051;-86
2022/06/29 12:37:08;;;;;;;4.53;2.28;;;;;;;;;;6249800;22;20027;-86
2022/06/29 12:42:35;;;;;;;3.70;1.98;;;;;;;;;;6281097;22;20431;-86
2022/06/29 12:48:48;;;;;;;2.90;1.77;;;;;;;;;;6275457;22;20727;-85
2022/06/29 12:51:48;;;;;;;2.95;2.15;;;;;;;;;;6221068;23;20024;-85
2022/06/29 13:00:36;;;;;;;3.35;1.88;;;;;;;;;;6242074;22;20023;-85
2022/06/29 13:03:02;;;;;;;3.67;2.00;;;;;;;;;;6250203;22;20046;-86
2022/06/29 13:37:58;;;;;;;4.20;2.97;;;;;;;;;;6249832;22;20066;-90
2022/06/29 13:48:12;;;;;;;8.98;4.43;;;30.60;99.90;;;;;;6287012;22;20038;-93
2022/06/29 13:54:20;;;;;;;;;;;;;;;;;;;;;
2022/06/29 14:06:15;;;;;;;4.88;4.38;;;;;;;;;;6275983;22;20849;-88
2022/06/29 14:09:16;;;;;;;6.78;4.40;;;;;;;;;;6256007;22;20031;-94
2022/06/29 14:12:18;;;;;;;5.07;4.18;;;;;;;;;;6254576;22;20019;-91
2022/06/29 14:14:57;;;;;;;5.97;3.80;;;;;;;;;;6234007;22;20023;-89
2022/06/29 14:17:47;;;;;;;3.95;3.65;;;;;;;;;;6208665;22;20123;-92
2022/06/29 14:23:35;;;;;;;4.32;3.65;;;;;;;;;;6077427;23;20022;-89
2022/06/29 14:29:42;;;;;;;;;;;;;;;;;;;;;
2022/06/29 14:32:22;;;;;;;7.38;4.25;;;;;;;;;;6001001;23;20054;-92
2022/06/29 14:34:48;;;;;;;4.63;3.78;;;;;;;;;;6098893;22;20070;-88
2022/06/29 14:37:17;;;;;;;12.02;4.65;;;;;;;;;;6204315;22;20030;-91
2022/06/29 14:39:47;;;;;;;4.75;4.13;;;;;;;;;;6249713;22;20031;-88
2022/06/29 14:45:12;;;;;;;7.60;4.28;;;;;;;;;;6255318;22;19921;-91
2022/06/29 14:47:44;;;;;;;4.30;3.90;;;;;;;;;;6226772;22;20382;-89
2022/06/29 14:50:30;;;;;;;8.35;3.95;;;;;;;;;;6232158;22;20097;-86
2022/06/29 15:16:04;;;;;;;5.93;3.72;;;;;;;;;;6079186;23;20641;-87
2022/06/29 15:21:53;;;;;;;9.32;4.10;;;;;;;;;;6098158;23;20046;-90
2022/06/29 15:27:55;;;;;;;10.23;6.63;;;;;;;;;;5983511;24;20025;-90
2022/06/29 15:58:46;;;;;;;8.85;7.93;;;;;;;;;;6100623;23;20359;-93
2022/06/29 16:14:28;;;;;;;8.73;7.07;;;;;;;;;;6231756;22;20077;-89
2022/06/29 16:20:19;;;;;;;5.78;5.28;;;;;;;;;;6284263;22;20017;-89
2022/06/29 16:22:59;;;;;;;8.25;6.28;;;;;;;;;;6230418;22;20507;-92
2022/06/29 16:41:02;;;;;;;5.82;3.90;;;;;;;;;;6287618;22;20035;-86
2022/06/29 16:47:56;;;;;;;5.60;3.88;;;;;;;;;;6045541;23;20078;-89
2022/06/29 16:50:22;;;;;;;4.65;4.00;;;;;;;;;;6143999;22;20024;-91
2022/06/29 16:52:50;;;;;;;6.55;4.00;;;;;;;;;;6232522;22;20034;-88
2022/06/29 17:01:40;;;;;;;6.45;4.60;;;;;;;;;;6282193;22;20456;-88
2022/06/29 17:04:07;;;;;;;9.32;4.85;;;;;;;;;;6255168;22;20051;-91
2022/06/29 17:09:56;;;;;;;5.70;4.40;;;;;;;;;;6283934;22;20027;-90
2022/06/29 17:12:56;;;;;;;;;;;;;;;;;;;;;
2022/06/29 17:22:00;;;;;;;4.38;3.65;;;;;;;;;;6250833;22;20311;-92
2022/06/29 17:24:50;;;;;;;4.40;3.97;;;;;;;;;;6228123;22;20103;-90
2022/06/29 17:33:14;;;;;;;4.20;3.40;;;;;;;;;;6269710;22;20023;-91
2022/06/29 17:38:50;;;;;;;3.80;3.25;;;;;;;;;;6286619;22;20023;-90
2022/06/29 17:41:16;;;;;;;6.63;3.40;;;;;;;;;;6232970;22;20023;-91
2022/06/29 17:43:42;;;;;;;5.15;3.40;;;;;;;;;;6232757;22;20022;-89
2022/06/29 17:46:08;;;;;;;4.40;2.85;;;;;;;;;;6205508;22;20020;-93
2022/06/29 17:48:55;;;;;;;5.47;2.90;;;;;;;;;;6256004;22;20058;-94
2022/06/29 17:51:39;;;;;;;6.97;3.50;;;;;;;;;;6237772;22;20022;-89
2022/06/29 17:54:06;;;;;;;7.13;3.20;;;;;;;;;;6206861;22;20103;-91
2022/06/29 17:56:34;;;;;;;3.42;2.95;;;;;;;;;;6203912;22;20012;-88
2022/06/29 17:59:03;;;;;;;7.93;2.90;;;;;;;;;;6203750;22;20021;-88
2022/06/29 18:01:42;;;;;;;3.00;2.80;;;;;;;;;;6202155;22;20020;-87
2022/06/29 18:04:08;;;;;;;5.53;3.22;;;;;;;;;;6228466;22;20027;-90
2022/06/29 18:06:34;;;;;;;4.78;3.00;;;;;;;;;;6230602;22;20046;-88
2022/06/29 18:15:08;;;;;;;4.45;3.05;;;;;;;;;;6283140;22;20039;-87
2022/06/29 18:20:19;;;;;;;4.60;3.00;;;;;;;;;;6291054;22;20172;-86
2022/06/29 18:22:45;;;;;;;9.85;2.90;;;;;;;;;;6264250;22;20051;-88
2022/06/29 18:31:10;;;;;;;3.63;2.97;;;;;;;;;;6254358;22;20068;-90
2022/06/29 18:33:37;;;;;;;4.72;3.05;;;;;;;;;;6175695;23;20020;-85
2022/06/29 18:36:06;;;;;;;7.60;2.97;;;;;;;;;;6253275;23;20040;-86
2022/06/29 18:38:33;;;;;;;6.80;2.70;;;;;;;;;;6200408;23;20046;-89
2022/06/29 18:41:18;;;;;;;3.55;3.00;;;;;;;;;;6199356;23;20012;-92
2022/06/29 18:43:47;;;;;;;7.47;3.58;;;;;;;;;;6224446;23;20016;-89
2022/06/29 18:46:16;;;;;;;8.38;4.10;;;;;;;;;;6200903;23;20043;-90
2022/06/29 18:48:42;;;;;;;4.32;3.88;;;;;;;;;;6232249;23;20020;-90
2022/06/29 18:51:09;;;;;;;4.78;4.22;;;;;;;;;;6201942;23;20020;-87
2022/06/29 18:53:50;;;;;;;4.63;4.18;;;;;;;;;;6229991;23;20020;-89
2022/06/29 18:56:36;;;;;;;6.28;3.67;;;;;;;;;;6229027;23;20047;-86
2022/06/29 18:59:02;;;;;;;5.50;4.18;;;;;;;;;;6231755;23;20016;-87
2022/06/29 19:01:28;;;;;;;4.15;3.33;;;;;;;;;;6208442;23;20020;-91
2022/06/29 19:03:57;;;;;;;5.22;3.53;;;;;;;;;;6234596;23;20054;-90
2022/06/29 19:06:23;;;;;;;4.70;3.67;;;;;;;;;;6210791;23;20020;-91
2022/06/29 19:09:04;;;;;;;6.63;3.50;;;;;;;;;;6207851;23;20026;-92
2022/06/29 19:17:09;;;;;;;8.73;3.37;;;;;;;;;;6240136;22;20024;-89
2022/06/29 19:19:35;;;;;;;3.40;3.08;;;;;;;;;;6263569;22;20035;-88
2022/06/29 19:22:01;;;;;;;5.55;3.50;;;;;;;;;;6239760;22;20026;-89
2022/06/29 19:24:28;;;;;;;7.13;3.30;;;;;;;;;;6236731;22;20365;-89
2022/06/29 19:26:54;;;;;;;3.47;3.00;;;;;;;;;;6236578;22;20015;-87
2022/06/29 19:29:24;;;;;;;6.75;4.43;;;;;;;;;;6232902;22;20018;-89
2022/06/29 19:31:50;;;;;;;5.03;4.13;;;;;;;;;;6257825;22;20023;-86
2022/06/29 19:34:17;;;;;;;7.20;3.83;;;;;;;;;;6231163;22;20058;-86
2022/06/29 19:36:44;;;;;;;4.47;4.07;;;;;;;;;;6205570;22;20014;-89
2022/06/29 19:39:10;;;;;;;5.57;3.25;;;;;;;;;;6204622;22;20086;-88
2022/06/29 19:41:37;;;;;;;4.68;3.20;;;;;;;;;;6231284;22;20019;-88
2022/06/29 19:44:03;;;;;;;3.83;3.33;;;;;;;;;;6255876;22;20043;-86
2022/06/29 19:46:29;;;;;;;4.63;4.22;;;;;;;;;;6250388;22;20024;-88
2022/06/29 19:52:09;;;;;;;4.35;3.95;;;;;;;;;;6254038;22;20027;-89
2022/06/29 19:54:35;;;;;;;4.00;3.60;;;;;;;;;;6253261;22;20020;-86
2022/06/29 19:57:03;;;;;;;4.53;3.78;;;;;;;;;;6279663;22;20071;-86
2022/06/29 19:59:29;;;;;;;4.70;4.20;;;;;;;;;;6204052;22;20075;-88
2022/06/29 20:01:56;;;;;;;5.43;4.65;;;;;;;;;;6279854;22;20020;-86
2022/06/29 20:04:22;;;;;;;7.50;4.75;;;;;;;;;;6253098;22;20050;-89
2022/06/29 20:06:49;;;;;;;5.70;5.13;;;;;;;;;;6230689;22;20075;-91
2022/06/29 20:09:18;;;;;;;7.22;6.45;;;;;;;;;;6256999;22;20024;-87
2022/06/29 20:11:50;;;;;;;8.18;6.65;;;;;;;;;;6257406;22;20395;-89
2022/06/29 20:14:17;;;;;;;8.93;6.60;;;;;;;;;;6255736;22;20024;-84
2022/06/29 20:16:44;;;;;;;6.78;6.05;;;;;;;;;;6254345;22;20022;-88
2022/06/29 20:22:59;;;;;;;6.00;5.53;;;;;;;;;;6191100;23;20032;-90
2022/06/29 20:25:25;;;;;;;7.82;6.32;;;;;;;;;;6137379;23;20321;-88
2022/06/29 20:27:52;;;;;;;6.32;5.72;;;;;;;;;;6164933;23;20017;-89
2022/06/29 20:30:21;;;;;;;9.40;6.00;;;;;;;;;;6142357;23;20043;-88
2022/06/29 20:33:09;;;;;;;7.00;6.30;;;;;;;;;;6141248;23;20017;-87
2022/06/29 20:35:35;;;;;;;9.43;6.38;;;;;;;;;;6138358;23;20025;-86
2022/06/29 20:41:41;;;;;;;7.40;6.70;;;;;;;;;;6161765;23;20021;-89
2022/06/29 20:50:51;;;;;;;8.40;7.22;;;;;;;;;;6268821;22;20062;-92
2022/06/29 20:57:18;;;;;;;9.57;7.50;;;;;;;;;;6247898;22;20023;-91
2022/06/29 21:03:35;;;;;;;8.07;7.28;;;;;;;;;;6129000;23;20021;-90
2022/06/29 21:08:37;;;;;;;8.68;7.97;;;;;;;;;;6271528;22;20023;-89
2022/06/29 21:11:38;;;;;;;9.50;7.75;;;;;;;;;;6253498;22;20019;-88
2022/06/29 21:14:10;;;;;;;9.50;8.68;;;;;;;;;;6255378;22;20095;-90
2022/06/29 21:16:48;;;;;;;9.70;8.70;;;;;;;;;;6223825;22;20127;-89
2022/06/29 21:19:40;;;;;;;9.55;8.80;;;;;;;;;;6203934;22;20016;-92
2022/06/29 21:22:08;;;;;;;9.38;8.48;;;;;;;;;;6204098;23;20347;-87
2022/06/29 21:31:21;;;;;;;9.10;8.25;;;;;;;;;;6287442;22;20028;-88